sensor_id;sensor_type;location;lat;lon;timestamp;P1;durP1;ratioP1;P2;durP2;ratioP2
44824;SDS011;30542;47.928;2.138;2023-02-07T00:00:29;4.43;;;1.00;;
44824;SDS011;30542;47.928;2.138;2023-02-07T00:05:30;1.42;;;0.80;;
44824;SDS011;30542;47.928;2.138;2023-02-07T00:10:30;1.52;;;1.00;;
44824;SDS011;30542;47.928;2.138;2023-02-07T00:15:31;1.33;;;0.82;;
44824;SDS011;30542;47.928;2.138;2023-02-07T00:20:32;1.43;;;1.17;;
44824;SDS011;30542;47.928;2.138;2023-02-07T00:25:32;1.50;;;0.90;;
44824;SDS011;30542;47.928;2.138;2023-02-07T00:30:32;2.07;;;0.80;;
44824;SDS011;30542;47.928;2.138;2023-02-07T00:35:33;1.30;;;0.70;;
44824;SDS011;30542;47.928;2.138;2023-02-07T00:40:33;1.75;;;1.10;;
44824;SDS011;30542;47.928;2.138;2023-02-07T00:45:34;1.50;;;1.00;;
44824;SDS011;30542;47.928;2.138;2023-02-07T00:50:34;2.40;;;0.90;;
44824;SDS011;30542;47.928;2.138;2023-02-07T03:27:12;2.22;;;1.10;;
44824;SDS011;30542;47.928;2.138;2023-02-07T03:32:15;2.45;;;0.90;;
44824;SDS011;30542;47.928;2.138;2023-02-07T03:37:19;1.67;;;0.95;;
44824;SDS011;30542;47.928;2.138;2023-02-07T03:42:26;1.23;;;0.85;;
44824;SDS011;30542;47.928;2.138;2023-02-07T03:47:31;1.75;;;1.00;;
44824;SDS011;30542;47.928;2.138;2023-02-07T03:52:31;1.00;;;0.70;;
44824;SDS011;30542;47.928;2.138;2023-02-07T03:57:32;1.97;;;0.97;;
44824;SDS011;30542;47.928;2.138;2023-02-07T04:02:32;2.60;;;1.20;;
44824;SDS011;30542;47.928;2.138;2023-02-07T04:07:33;1.57;;;0.90;;
44824;SDS011;30542;47.928;2.138;2023-02-07T04:12:33;1.55;;;0.93;;
44824;SDS011;30542;47.928;2.138;2023-02-07T04:17:34;1.10;;;0.70;;
44824;SDS011;30542;47.928;2.138;2023-02-07T04:22:34;1.83;;;0.73;;
44824;SDS011;30542;47.928;2.138;2023-02-07T04:27:35;1.40;;;0.80;;
44824;SDS011;30542;47.928;2.138;2023-02-07T04:32:35;1.73;;;0.83;;
44824;SDS011;30542;47.928;2.138;2023-02-07T04:37:36;1.53;;;0.83;;
44824;SDS011;30542;47.928;2.138;2023-02-07T04:42:36;1.33;;;0.80;;
44824;SDS011;30542;47.928;2.138;2023-02-07T04:47:36;3.10;;;1.17;;
44824;SDS011;30542;47.928;2.138;2023-02-07T04:52:37;1.47;;;0.77;;
44824;SDS011;30542;47.928;2.138;2023-02-07T04:57:39;2.63;;;1.08;;
44824;SDS011;30542;47.928;2.138;2023-02-07T05:02:39;1.23;;;0.70;;
44824;SDS011;30542;47.928;2.138;2023-02-07T05:07:40;1.30;;;0.70;;
44824;SDS011;30542;47.928;2.138;2023-02-07T05:12:40;1.97;;;0.80;;
44824;SDS011;30542;47.928;2.138;2023-02-07T05:17:40;1.57;;;1.00;;
44824;SDS011;30542;47.928;2.138;2023-02-07T05:22:41;3.33;;;1.23;;
44824;SDS011;30542;47.928;2.138;2023-02-07T05:27:41;2.87;;;1.10;;
44824;SDS011;30542;47.928;2.138;2023-02-07T05:32:42;2.77;;;1.20;;
44824;SDS011;30542;47.928;2.138;2023-02-07T05:38:00;3.67;;;1.30;;
44824;SDS011;30542;47.928;2.138;2023-02-07T05:43:03;4.57;;;1.50;;
44824;SDS011;30542;47.928;2.138;2023-02-07T05:48:04;4.32;;;1.25;;
44824;SDS011;30542;47.928;2.138;2023-02-07T05:53:07;3.83;;;1.40;;
44824;SDS011;30542;47.928;2.138;2023-02-07T05:58:08;4.30;;;1.20;;
44824;SDS011;30542;47.928;2.138;2023-02-07T06:03:08;3.70;;;1.35;;
44824;SDS011;30542;47.928;2.138;2023-02-07T06:08:09;8.55;;;2.92;;
44824;SDS011;30542;47.928;2.138;2023-02-07T06:13:10;15.43;;;3.90;;
44824;SDS011;30542;47.928;2.138;2023-02-07T06:18:10;13.30;;;4.10;;
44824;SDS011;30542;47.928;2.138;2023-02-07T06:23:10;14.53;;;3.93;;
44824;SDS011;30542;47.928;2.138;2023-02-07T06:28:11;11.83;;;3.50;;
44824;SDS011;30542;47.928;2.138;2023-02-07T06:33:11;10.43;;;3.03;;
44824;SDS011;30542;47.928;2.138;2023-02-07T06:38:15;8.63;;;3.13;;
44824;SDS011;30542;47.928;2.138;2023-02-07T06:43:16;9.98;;;3.05;;
44824;SDS011;30542;47.928;2.138;2023-02-07T06:48:17;5.33;;;2.40;;
44824;SDS011;30542;47.928;2.138;2023-02-07T06:53:17;8.00;;;2.93;;
44824;SDS011;30542;47.928;2.138;2023-02-07T06:58:17;6.80;;;1.97;;
44824;SDS011;30542;47.928;2.138;2023-02-07T07:03:18;5.73;;;2.10;;
44824;SDS011;30542;47.928;2.138;2023-02-07T07:08:18;4.97;;;2.10;;
44824;SDS011;30542;47.928;2.138;2023-02-07T07:13:19;7.83;;;2.40;;
44824;SDS011;30542;47.928;2.138;2023-02-07T07:18:19;8.15;;;2.78;;
44824;SDS011;30542;47.928;2.138;2023-02-07T07:23:20;12.80;;;2.57;;
44824;SDS011;30542;47.928;2.138;2023-02-07T07:28:20;6.83;;;2.43;;
44824;SDS011;30542;47.928;2.138;2023-02-07T07:33:20;8.43;;;1.90;;
44824;SDS011;30542;47.928;2.138;2023-02-07T07:38:21;8.90;;;2.27;;
44824;SDS011;30542;47.928;2.138;2023-02-07T07:43:21;6.97;;;2.13;;
44824;SDS011;30542;47.928;2.138;2023-02-07T07:48:22;4.57;;;2.30;;
44824;SDS011;30542;47.928;2.138;2023-02-07T07:53:23;5.22;;;1.48;;
44824;SDS011;30542;47.928;2.138;2023-02-07T07:58:24;10.68;;;2.42;;
44824;SDS011;30542;47.928;2.138;2023-02-07T08:03:25;5.43;;;1.52;;
44824;SDS011;30542;47.928;2.138;2023-02-07T08:08:26;7.20;;;2.40;;
44824;SDS011;30542;47.928;2.138;2023-02-07T08:13:26;6.60;;;1.90;;
44824;SDS011;30542;47.928;2.138;2023-02-07T08:18:27;4.70;;;1.57;;
44824;SDS011;30542;47.928;2.138;2023-02-07T08:23:28;5.78;;;2.03;;
44824;SDS011;30542;47.928;2.138;2023-02-07T08:28:29;5.35;;;1.88;;
44824;SDS011;30542;47.928;2.138;2023-02-07T08:33:30;7.03;;;1.95;;
44824;SDS011;30542;47.928;2.138;2023-02-07T08:38:30;6.75;;;2.33;;
44824;SDS011;30542;47.928;2.138;2023-02-07T08:43:31;5.27;;;1.50;;
44824;SDS011;30542;47.928;2.138;2023-02-07T08:48:31;4.87;;;1.83;;
44824;SDS011;30542;47.928;2.138;2023-02-07T08:53:32;3.65;;;1.27;;
44824;SDS011;30542;47.928;2.138;2023-02-07T08:58:32;4.93;;;1.40;;
44824;SDS011;30542;47.928;2.138;2023-02-07T09:03:33;2.77;;;1.13;;
44824;SDS011;30542;47.928;2.138;2023-02-07T09:08:33;3.63;;;1.00;;
44824;SDS011;30542;47.928;2.138;2023-02-07T09:13:33;4.47;;;1.00;;
44824;SDS011;30542;47.928;2.138;2023-02-07T09:18:34;2.78;;;1.20;;
44824;SDS011;30542;47.928;2.138;2023-02-07T09:23:35;2.22;;;0.90;;
44824;SDS011;30542;47.928;2.138;2023-02-07T09:28:35;4.03;;;1.20;;
44824;SDS011;30542;47.928;2.138;2023-02-07T09:33:36;3.35;;;0.82;;
44824;SDS011;30542;47.928;2.138;2023-02-07T09:38:37;3.10;;;1.20;;
44824;SDS011;30542;47.928;2.138;2023-02-07T09:43:58;1.83;;;0.80;;
44824;SDS011;30542;47.928;2.138;2023-02-07T09:49:26;1.95;;;0.80;;
44824;SDS011;30542;47.928;2.138;2023-02-07T09:54:36;2.60;;;0.73;;
44824;SDS011;30542;47.928;2.138;2023-02-07T09:59:41;4.10;;;0.80;;
44824;SDS011;30542;47.928;2.138;2023-02-07T10:04:47;2.00;;;1.03;;
44824;SDS011;30542;47.928;2.138;2023-02-07T10:09:49;2.35;;;0.77;;
44824;SDS011;30542;47.928;2.138;2023-02-07T10:15:05;2.28;;;0.80;;
44824;SDS011;30542;47.928;2.138;2023-02-07T10:20:35;1.60;;;0.60;;
44824;SDS011;30542;47.928;2.138;2023-02-07T10:31:13;3.00;;;0.70;;
44824;SDS011;30542;47.928;2.138;2023-02-07T10:36:16;1.67;;;0.70;;
44824;SDS011;30542;47.928;2.138;2023-02-07T10:41:37;1.48;;;0.50;;
44824;SDS011;30542;47.928;2.138;2023-02-07T10:46:39;0.90;;;0.57;;
44824;SDS011;30542;47.928;2.138;2023-02-07T10:51:41;1.38;;;0.55;;
44824;SDS011;30542;47.928;2.138;2023-02-07T10:56:51;1.10;;;0.40;;
44824;SDS011;30542;47.928;2.138;2023-02-07T11:01:54;1.73;;;0.63;;
44824;SDS011;30542;47.928;2.138;2023-02-07T11:06:59;2.40;;;0.43;;
44824;SDS011;30542;47.928;2.138;2023-02-07T11:12:01;1.38;;;0.60;;
44824;SDS011;30542;47.928;2.138;2023-02-07T11:17:18;1.95;;;0.70;;
44824;SDS011;30542;47.928;2.138;2023-02-07T11:22:21;1.35;;;0.70;;
44824;SDS011;30542;47.928;2.138;2023-02-07T11:27:23;1.40;;;0.40;;
44824;SDS011;30542;47.928;2.138;2023-02-07T11:32:25;3.10;;;0.52;;
44824;SDS011;30542;47.928;2.138;2023-02-07T11:37:28;1.58;;;0.55;;
44824;SDS011;30542;47.928;2.138;2023-02-07T11:42:32;1.00;;;0.40;;
44824;SDS011;30542;47.928;2.138;2023-02-07T11:47:35;1.27;;;0.50;;
44824;SDS011;30542;47.928;2.138;2023-02-07T11:52:37;0.80;;;0.30;;
44824;SDS011;30542;47.928;2.138;2023-02-07T11:57:39;1.38;;;0.60;;
44824;SDS011;30542;47.928;2.138;2023-02-07T12:02:39;1.52;;;0.30;;
44824;SDS011;30542;47.928;2.138;2023-02-07T12:07:48;1.00;;;0.30;;
44824;SDS011;30542;47.928;2.138;2023-02-07T12:12:54;0.98;;;0.40;;
44824;SDS011;30542;47.928;2.138;2023-02-07T12:23:12;1.70;;;0.60;;
44824;SDS011;30542;47.928;2.138;2023-02-07T12:28:26;0.63;;;0.35;;
44824;SDS011;30542;47.928;2.138;2023-02-07T12:34:31;1.17;;;0.40;;
44824;SDS011;30542;47.928;2.138;2023-02-07T12:39:21;1.27;;;0.40;;
44824;SDS011;30542;47.928;2.138;2023-02-07T12:44:37;1.73;;;0.43;;
44824;SDS011;30542;47.928;2.138;2023-02-07T12:55:11;0.57;;;0.30;;
44824;SDS011;30542;47.928;2.138;2023-02-07T13:16:23;0.45;;;0.30;;
44824;SDS011;30542;47.928;2.138;2023-02-07T13:26:50;0.50;;;0.40;;
44824;SDS011;30542;47.928;2.138;2023-02-07T13:32:04;0.73;;;0.40;;
44824;SDS011;30542;47.928;2.138;2023-02-07T13:37:12;0.43;;;0.30;;
44824;SDS011;30542;47.928;2.138;2023-02-07T13:53:03;0.65;;;0.30;;
44824;SDS011;30542;47.928;2.138;2023-02-07T14:09:44;1.00;;;0.30;;
44824;SDS011;30542;47.928;2.138;2023-02-07T14:14:41;0.45;;;0.30;;
44824;SDS011;30542;47.928;2.138;2023-02-07T14:25:10;0.47;;;0.30;;
44824;SDS011;30542;47.928;2.138;2023-02-07T14:30:37;0.52;;;0.30;;
44824;SDS011;30542;47.928;2.138;2023-02-07T14:41:15;0.60;;;0.40;;
44824;SDS011;30542;47.928;2.138;2023-02-07T15:01:41;1.13;;;0.40;;
44824;SDS011;30542;47.928;2.138;2023-02-07T15:06:42;0.52;;;0.30;;
44824;SDS011;30542;47.928;2.138;2023-02-07T15:11:44;0.50;;;0.32;;
44824;SDS011;30542;47.928;2.138;2023-02-07T15:16:44;0.50;;;0.30;;
44824;SDS011;30542;47.928;2.138;2023-02-07T15:21:46;0.55;;;0.20;;
44824;SDS011;30542;47.928;2.138;2023-02-07T15:26:49;0.40;;;0.30;;
44824;SDS011;30542;47.928;2.138;2023-02-07T15:31:52;0.63;;;0.28;;
44824;SDS011;30542;47.928;2.138;2023-02-07T15:36:53;0.40;;;0.32;;
44824;SDS011;30542;47.928;2.138;2023-02-07T15:41:54;0.53;;;0.43;;
44824;SDS011;30542;47.928;2.138;2023-02-07T15:46:56;0.35;;;0.30;;
44824;SDS011;30542;47.928;2.138;2023-02-07T15:52:04;0.40;;;0.30;;
44824;SDS011;30542;47.928;2.138;2023-02-07T15:57:20;0.40;;;0.30;;
44824;SDS011;30542;47.928;2.138;2023-02-07T16:02:34;0.60;;;0.45;;
44824;SDS011;30542;47.928;2.138;2023-02-07T16:07:38;0.88;;;0.40;;
44824;SDS011;30542;47.928;2.138;2023-02-07T16:17:43;0.30;;;0.30;;
44824;SDS011;30542;47.928;2.138;2023-02-07T16:22:44;0.20;;;0.20;;
44824;SDS011;30542;47.928;2.138;2023-02-07T16:27:46;0.38;;;0.28;;
44824;SDS011;30542;47.928;2.138;2023-02-07T16:32:49;0.50;;;0.20;;
44824;SDS011;30542;47.928;2.138;2023-02-07T16:37:49;0.60;;;0.40;;
44824;SDS011;30542;47.928;2.138;2023-02-07T16:42:50;0.52;;;0.30;;
44824;SDS011;30542;47.928;2.138;2023-02-07T16:47:52;0.45;;;0.30;;
44824;SDS011;30542;47.928;2.138;2023-02-07T16:52:54;0.95;;;0.35;;
44824;SDS011;30542;47.928;2.138;2023-02-07T16:57:58;2.55;;;0.30;;
44824;SDS011;30542;47.928;2.138;2023-02-07T17:03:02;0.80;;;0.30;;
44824;SDS011;30542;47.928;2.138;2023-02-07T17:08:02;1.60;;;0.30;;
44824;SDS011;30542;47.928;2.138;2023-02-07T17:13:03;0.93;;;0.20;;
44824;SDS011;30542;47.928;2.138;2023-02-07T17:18:03;1.23;;;0.30;;
44824;SDS011;30542;47.928;2.138;2023-02-07T17:23:03;1.05;;;0.80;;
44824;SDS011;30542;47.928;2.138;2023-02-07T17:28:04;0.55;;;0.38;;
44824;SDS011;30542;47.928;2.138;2023-02-07T17:33:05;1.90;;;0.40;;
44824;SDS011;30542;47.928;2.138;2023-02-07T17:38:06;2.00;;;0.65;;
44824;SDS011;30542;47.928;2.138;2023-02-07T17:43:06;3.47;;;0.67;;
44824;SDS011;30542;47.928;2.138;2023-02-07T17:48:08;1.60;;;0.57;;
44824;SDS011;30542;47.928;2.138;2023-02-07T17:53:10;1.85;;;0.55;;
44824;SDS011;30542;47.928;2.138;2023-02-07T17:58:10;2.57;;;0.63;;
44824;SDS011;30542;47.928;2.138;2023-02-07T18:03:11;3.92;;;0.60;;
44824;SDS011;30542;47.928;2.138;2023-02-07T18:08:12;5.33;;;0.70;;
44824;SDS011;30542;47.928;2.138;2023-02-07T18:13:13;4.70;;;0.60;;
44824;SDS011;30542;47.928;2.138;2023-02-07T18:18:14;2.35;;;0.80;;
44824;SDS011;30542;47.928;2.138;2023-02-07T18:23:15;3.78;;;0.70;;
44824;SDS011;30542;47.928;2.138;2023-02-07T18:28:15;6.43;;;1.27;;
44824;SDS011;30542;47.928;2.138;2023-02-07T18:33:16;4.80;;;1.10;;
44824;SDS011;30542;47.928;2.138;2023-02-07T18:38:18;2.90;;;0.85;;
44824;SDS011;30542;47.928;2.138;2023-02-07T18:43:18;3.08;;;0.90;;
44824;SDS011;30542;47.928;2.138;2023-02-07T18:48:19;3.07;;;1.03;;
44824;SDS011;30542;47.928;2.138;2023-02-07T18:53:19;1.93;;;0.70;;
44824;SDS011;30542;47.928;2.138;2023-02-07T18:58:19;3.80;;;0.70;;
44824;SDS011;30542;47.928;2.138;2023-02-07T19:03:20;1.73;;;0.80;;
44824;SDS011;30542;47.928;2.138;2023-02-07T19:08:20;1.40;;;0.90;;
44824;SDS011;30542;47.928;2.138;2023-02-07T19:13:21;1.63;;;0.90;;
44824;SDS011;30542;47.928;2.138;2023-02-07T19:18:21;2.80;;;1.00;;
44824;SDS011;30542;47.928;2.138;2023-02-07T19:23:21;2.10;;;0.90;;
44824;SDS011;30542;47.928;2.138;2023-02-07T19:28:22;2.80;;;1.10;;
44824;SDS011;30542;47.928;2.138;2023-02-07T19:33:23;2.55;;;0.82;;
44824;SDS011;30542;47.928;2.138;2023-02-07T19:38:24;1.55;;;0.90;;
44824;SDS011;30542;47.928;2.138;2023-02-07T19:43:24;2.53;;;0.67;;
44824;SDS011;30542;47.928;2.138;2023-02-07T19:48:24;1.77;;;1.00;;
44824;SDS011;30542;47.928;2.138;2023-02-07T19:53:25;1.60;;;0.87;;
44824;SDS011;30542;47.928;2.138;2023-02-07T19:58:27;1.48;;;0.90;;
44824;SDS011;30542;47.928;2.138;2023-02-07T20:03:28;1.67;;;1.02;;
44824;SDS011;30542;47.928;2.138;2023-02-07T20:08:29;1.75;;;0.90;;
44824;SDS011;30542;47.928;2.138;2023-02-07T20:13:36;2.60;;;0.95;;
44824;SDS011;30542;47.928;2.138;2023-02-07T20:18:38;2.33;;;0.90;;
44824;SDS011;30542;47.928;2.138;2023-02-07T20:23:39;1.40;;;0.88;;
44824;SDS011;30542;47.928;2.138;2023-02-07T20:28:40;2.20;;;0.77;;
44824;SDS011;30542;47.928;2.138;2023-02-07T20:33:41;1.17;;;0.88;;
44824;SDS011;30542;47.928;2.138;2023-02-07T20:38:42;1.42;;;0.80;;
44824;SDS011;30542;47.928;2.138;2023-02-07T20:43:43;1.05;;;0.77;;
44824;SDS011;30542;47.928;2.138;2023-02-07T20:48:44;1.87;;;1.10;;
44824;SDS011;30542;47.928;2.138;2023-02-07T20:53:44;0.93;;;0.83;;
44824;SDS011;30542;47.928;2.138;2023-02-07T20:58:45;2.33;;;0.90;;
44824;SDS011;30542;47.928;2.138;2023-02-07T21:03:49;2.63;;;0.80;;
44824;SDS011;30542;47.928;2.138;2023-02-07T21:08:51;1.35;;;0.90;;
44824;SDS011;30542;47.928;2.138;2023-02-07T21:13:59;1.65;;;1.05;;
44824;SDS011;30542;47.928;2.138;2023-02-07T21:19:00;1.58;;;0.93;;
44824;SDS011;30542;47.928;2.138;2023-02-07T21:24:01;2.65;;;0.93;;
44824;SDS011;30542;47.928;2.138;2023-02-07T21:29:02;1.52;;;1.38;;
44824;SDS011;30542;47.928;2.138;2023-02-07T21:34:03;2.35;;;1.27;;
44824;SDS011;30542;47.928;2.138;2023-02-07T21:39:06;1.35;;;1.00;;
44824;SDS011;30542;47.928;2.138;2023-02-07T21:44:10;1.38;;;1.25;;
44824;SDS011;30542;47.928;2.138;2023-02-07T21:49:12;1.77;;;1.30;;
44824;SDS011;30542;47.928;2.138;2023-02-07T21:54:15;2.15;;;1.55;;
44824;SDS011;30542;47.928;2.138;2023-02-07T21:59:16;2.20;;;1.10;;
44824;SDS011;30542;47.928;2.138;2023-02-07T22:04:18;2.33;;;1.70;;
44824;SDS011;30542;47.928;2.138;2023-02-07T22:09:19;2.60;;;1.45;;
44824;SDS011;30542;47.928;2.138;2023-02-07T22:14:22;3.22;;;1.35;;
44824;SDS011;30542;47.928;2.138;2023-02-07T22:19:24;2.08;;;1.60;;
44824;SDS011;30542;47.928;2.138;2023-02-07T22:24:25;1.53;;;1.40;;
44824;SDS011;30542;47.928;2.138;2023-02-07T22:29:25;2.27;;;1.80;;
44824;SDS011;30542;47.928;2.138;2023-02-07T22:34:25;1.70;;;1.27;;
44824;SDS011;30542;47.928;2.138;2023-02-07T22:39:26;2.03;;;1.65;;
44824;SDS011;30542;47.928;2.138;2023-02-07T22:44:26;2.50;;;1.87;;
44824;SDS011;30542;47.928;2.138;2023-02-07T22:49:27;1.70;;;1.57;;
44824;SDS011;30542;47.928;2.138;2023-02-07T22:54:27;1.67;;;1.50;;
44824;SDS011;30542;47.928;2.138;2023-02-07T22:59:27;2.30;;;1.70;;
44824;SDS011;30542;47.928;2.138;2023-02-07T23:04:28;2.83;;;2.08;;
44824;SDS011;30542;47.928;2.138;2023-02-07T23:09:28;2.40;;;1.63;;
44824;SDS011;30542;47.928;2.138;2023-02-07T23:14:29;2.67;;;1.70;;
44824;SDS011;30542;47.928;2.138;2023-02-07T23:19:29;2.00;;;1.80;;
44824;SDS011;30542;47.928;2.138;2023-02-07T23:24:29;2.67;;;2.00;;
44824;SDS011;30542;47.928;2.138;2023-02-07T23:29:30;2.90;;;2.10;;
44824;SDS011;30542;47.928;2.138;2023-02-07T23:34:30;3.13;;;1.95;;
44824;SDS011;30542;47.928;2.138;2023-02-07T23:39:31;2.35;;;1.73;;
44824;SDS011;30542;47.928;2.138;2023-02-07T23:44:32;2.67;;;2.10;;
44824;SDS011;30542;47.928;2.138;2023-02-07T23:49:32;2.47;;;2.10;;
44824;SDS011;30542;47.928;2.138;2023-02-07T23:54:32;4.40;;;1.87;;
44824;SDS011;30542;47.928;2.138;2023-02-07T23:59:33;2.08;;;1.88;;
